Kadena Air Base
RODN : now visible

Airfield :











YOU CAN JOIN US ON...

 
LOGIN :

Register | Disclaimer

   EN    FR    IT 

 









Legend :    VFR   Marginal VFR   IFR   Intensive IFR   Very Intensive IFR
Visi :
Ceiling :
>= 8 km
>= 3000ft
5 to 8 km
1000 to 3000 ft
1500m to 5 km
500 to 1000 ft
800 to 1500m
200 to 500 ft
< 800m
< 200 ft
Symbols :   Thunderstorms  Fog  Heavy snow  Heavy precipitations  Wind > 20 kt






- Airport Elevation : 143 ft
- IATA code : DNA


RODN - Kadena Air Base

CURRENT METAR :
  • 140656Z AUTO 01009KT 10SM CLR 21/12 A3016 RMK AO2 SLP221 T02140122 $

EXPIRED METARs :
  • 140556Z AUTO 36012KT 10SM FEW037 22/13 A3017 RMK AO2 SLP224 T02150126 10227 20189 57019 $
  • 140456Z AUTO 01012KT 10SM SCT039 22/12 A3018 RMK AO2 SLP227 T02210123 $

TAF TAF RODN
Valid from the 14 at 00:00 until the 15 at 06:00 UTC


140000Z 1400/1506 05012KT 9999 FEW040 QNH3017INS
BECMG 1406/1407 05009KT 9999 SCT040 QNH3015INS TX23/1408Z TN12/1421Z



MET'MAP, your aeronautical weather chart ! - Copyright ORBIFLY December 2007 - Disclaimer

ORBIFLY MET'MAP TEAM :

Programming & Development : Alexandra Zaïnal
Concept & original design : Baudouin d'Aumeries
Assistance for programming : Marc-Olivier Méhu
Technical & hardware support : Manuel Goepfert

Contact : metmap@orbifly.com




SOURCES & CREDITS :

   NOAA       Earth
Advisory